sensor_id;sensor_type;location;lat;lon;timestamp;temperature;humidity
78289;DHT22;67539;48.752;12.922;2023-12-20T00:01:25;1.90;99.90
78289;DHT22;67539;48.752;12.922;2023-12-20T00:03:53;2.00;99.90
78289;DHT22;67539;48.752;12.922;2023-12-20T00:06:22;2.00;99.90
78289;DHT22;67539;48.752;12.922;2023-12-20T00:08:51;1.90;99.90
78289;DHT22;67539;48.752;12.922;2023-12-20T00:11:19;1.90;99.90
78289;DHT22;67539;48.752;12.922;2023-12-20T00:13:47;1.90;99.90
78289;DHT22;67539;48.752;12.922;2023-12-20T00:16:18;1.90;99.90
78289;DHT22;67539;48.752;12.922;2023-12-20T00:18:47;1.90;99.90
78289;DHT22;67539;48.752;12.922;2023-12-20T00:21:16;1.90;99.90
78289;DHT22;67539;48.752;12.922;2023-12-20T00:23:44;2.00;99.90
78289;DHT22;67539;48.752;12.922;2023-12-20T00:26:12;2.00;99.90
78289;DHT22;67539;48.752;12.922;2023-12-20T00:28:40;2.00;99.90
78289;DHT22;67539;48.752;12.922;2023-12-20T00:31:09;2.00;99.90
78289;DHT22;67539;48.752;12.922;2023-12-20T00:33:38;2.00;99.90
78289;DHT22;67539;48.752;12.922;2023-12-20T00:36:08;2.10;99.90
78289;DHT22;67539;48.752;12.922;2023-12-20T00:38:36;2.00;99.90
78289;DHT22;67539;48.752;12.922;2023-12-20T00:41:04;2.10;99.90
78289;DHT22;67539;48.752;12.922;2023-12-20T00:43:32;2.10;99.90
78289;DHT22;67539;48.752;12.922;2023-12-20T00:46:01;2.10;99.90
78289;DHT22;67539;48.752;12.922;2023-12-20T00:48:29;2.10;99.90
78289;DHT22;67539;48.752;12.922;2023-12-20T00:50:58;2.10;99.90
78289;DHT22;67539;48.752;12.922;2023-12-20T00:53:27;2.10;99.90
78289;DHT22;67539;48.752;12.922;2023-12-20T00:55:56;2.10;99.90
78289;DHT22;67539;48.752;12.922;2023-12-20T00:58:25;2.10;99.90
78289;DHT22;67539;48.752;12.922;2023-12-20T01:00:55;2.10;99.90
78289;DHT22;67539;48.752;12.922;2023-12-20T01:03:23;2.10;99.90
78289;DHT22;67539;48.752;12.922;2023-12-20T01:05:51;2.10;99.90
78289;DHT22;67539;48.752;12.922;2023-12-20T01:08:19;2.10;99.90
78289;DHT22;67539;48.752;12.922;2023-12-20T01:10:49;2.10;99.90
78289;DHT22;67539;48.752;12.922;2023-12-20T01:13:17;2.10;99.90
78289;DHT22;67539;48.752;12.922;2023-12-20T01:15:45;2.10;99.90
78289;DHT22;67539;48.752;12.922;2023-12-20T01:18:14;2.10;99.90
78289;DHT22;67539;48.752;12.922;2023-12-20T01:20:43;2.10;99.90
78289;DHT22;67539;48.752;12.922;2023-12-20T01:23:11;2.10;99.90
78289;DHT22;67539;48.752;12.922;2023-12-20T01:25:39;2.10;99.90
78289;DHT22;67539;48.752;12.922;2023-12-20T01:28:08;2.10;99.90
78289;DHT22;67539;48.752;12.922;2023-12-20T01:30:36;2.10;99.90
78289;DHT22;67539;48.752;12.922;2023-12-20T01:33:05;2.10;99.90
78289;DHT22;67539;48.752;12.922;2023-12-20T01:35:33;2.10;99.90
78289;DHT22;67539;48.752;12.922;2023-12-20T01:38:01;2.10;99.90
78289;DHT22;67539;48.752;12.922;2023-12-20T01:40:29;2.10;99.90
78289;DHT22;67539;48.752;12.922;2023-12-20T01:42:58;2.10;99.90
78289;DHT22;67539;48.752;12.922;2023-12-20T01:45:28;2.10;99.90
78289;DHT22;67539;48.752;12.922;2023-12-20T01:47:58;2.20;99.90
78289;DHT22;67539;48.752;12.922;2023-12-20T01:50:27;2.20;99.90
78289;DHT22;67539;48.752;12.922;2023-12-20T01:52:56;2.20;99.90
78289;DHT22;67539;48.752;12.922;2023-12-20T01:55:25;2.20;99.90
78289;DHT22;67539;48.752;12.922;2023-12-20T01:57:55;2.20;99.90
78289;DHT22;67539;48.752;12.922;2023-12-20T02:00:25;2.20;99.90
78289;DHT22;67539;48.752;12.922;2023-12-20T02:02:55;2.20;99.90
78289;DHT22;67539;48.752;12.922;2023-12-20T02:05:29;2.20;99.90
78289;DHT22;67539;48.752;12.922;2023-12-20T02:07:57;2.20;99.90
78289;DHT22;67539;48.752;12.922;2023-12-20T02:10:26;2.20;99.90
78289;DHT22;67539;48.752;12.922;2023-12-20T02:12:56;2.20;99.90
78289;DHT22;67539;48.752;12.922;2023-12-20T02:15:24;2.30;99.90
78289;DHT22;67539;48.752;12.922;2023-12-20T02:17:52;2.30;99.90
78289;DHT22;67539;48.752;12.922;2023-12-20T02:20:22;2.20;99.90
78289;DHT22;67539;48.752;12.922;2023-12-20T02:22:52;2.20;99.90
78289;DHT22;67539;48.752;12.922;2023-12-20T02:25:20;2.30;99.90
78289;DHT22;67539;48.752;12.922;2023-12-20T02:27:48;2.30;99.90
78289;DHT22;67539;48.752;12.922;2023-12-20T02:30:17;2.20;99.90
78289;DHT22;67539;48.752;12.922;2023-12-20T02:32:46;2.20;99.90
78289;DHT22;67539;48.752;12.922;2023-12-20T02:35:14;2.20;99.90
78289;DHT22;67539;48.752;12.922;2023-12-20T02:37:43;2.30;99.90
78289;DHT22;67539;48.752;12.922;2023-12-20T02:40:12;2.30;99.90
78289;DHT22;67539;48.752;12.922;2023-12-20T02:42:40;2.30;99.90
78289;DHT22;67539;48.752;12.922;2023-12-20T02:45:09;2.30;99.90
78289;DHT22;67539;48.752;12.922;2023-12-20T02:47:37;2.30;99.90
78289;DHT22;67539;48.752;12.922;2023-12-20T02:50:06;2.30;99.90
78289;DHT22;67539;48.752;12.922;2023-12-20T02:52:34;2.30;99.90
78289;DHT22;67539;48.752;12.922;2023-12-20T02:55:03;2.40;99.90
78289;DHT22;67539;48.752;12.922;2023-12-20T02:57:32;2.40;99.90
78289;DHT22;67539;48.752;12.922;2023-12-20T03:00:03;2.30;99.90
78289;DHT22;67539;48.752;12.922;2023-12-20T03:02:32;2.30;99.90
78289;DHT22;67539;48.752;12.922;2023-12-20T03:05:00;2.40;99.90
78289;DHT22;67539;48.752;12.922;2023-12-20T03:07:28;2.40;99.90
78289;DHT22;67539;48.752;12.922;2023-12-20T03:09:56;2.40;99.90
78289;DHT22;67539;48.752;12.922;2023-12-20T03:12:46;2.40;99.90
78289;DHT22;67539;48.752;12.922;2023-12-20T03:15:14;2.40;99.90
78289;DHT22;67539;48.752;12.922;2023-12-20T03:17:42;2.40;99.90
78289;DHT22;67539;48.752;12.922;2023-12-20T03:20:12;2.40;99.90
78289;DHT22;67539;48.752;12.922;2023-12-20T03:22:40;2.40;99.90
78289;DHT22;67539;48.752;12.922;2023-12-20T03:25:08;2.40;99.90
78289;DHT22;67539;48.752;12.922;2023-12-20T03:27:37;2.40;99.90
78289;DHT22;67539;48.752;12.922;2023-12-20T03:30:08;2.40;99.90
78289;DHT22;67539;48.752;12.922;2023-12-20T03:32:38;2.40;99.90
78289;DHT22;67539;48.752;12.922;2023-12-20T03:35:06;2.40;99.90
78289;DHT22;67539;48.752;12.922;2023-12-20T03:37:34;2.50;99.90
78289;DHT22;67539;48.752;12.922;2023-12-20T03:40:03;2.50;99.90
78289;DHT22;67539;48.752;12.922;2023-12-20T03:42:32;2.50;99.90
78289;DHT22;67539;48.752;12.922;2023-12-20T03:45:00;2.40;99.90
78289;DHT22;67539;48.752;12.922;2023-12-20T03:47:29;2.50;99.90
78289;DHT22;67539;48.752;12.922;2023-12-20T03:49:57;2.50;99.90
78289;DHT22;67539;48.752;12.922;2023-12-20T03:52:26;2.50;99.90
78289;DHT22;67539;48.752;12.922;2023-12-20T03:54:54;2.50;99.90
78289;DHT22;67539;48.752;12.922;2023-12-20T03:57:22;2.50;99.90
78289;DHT22;67539;48.752;12.922;2023-12-20T03:59:50;2.50;99.90
78289;DHT22;67539;48.752;12.922;2023-12-20T04:02:18;2.50;99.90
78289;DHT22;67539;48.752;12.922;2023-12-20T04:04:48;2.50;99.90
78289;DHT22;67539;48.752;12.922;2023-12-20T04:07:16;2.60;99.90
78289;DHT22;67539;48.752;12.922;2023-12-20T04:09:44;2.60;99.90
78289;DHT22;67539;48.752;12.922;2023-12-20T04:12:14;2.60;99.90
78289;DHT22;67539;48.752;12.922;2023-12-20T04:14:42;2.60;99.90
78289;DHT22;67539;48.752;12.922;2023-12-20T04:17:10;2.50;99.90
78289;DHT22;67539;48.752;12.922;2023-12-20T04:19:38;2.50;99.90
78289;DHT22;67539;48.752;12.922;2023-12-20T04:22:08;2.50;99.90
78289;DHT22;67539;48.752;12.922;2023-12-20T04:24:36;2.50;99.90
78289;DHT22;67539;48.752;12.922;2023-12-20T04:27:04;2.50;99.90
78289;DHT22;67539;48.752;12.922;2023-12-20T04:29:33;2.50;99.90
78289;DHT22;67539;48.752;12.922;2023-12-20T04:32:01;2.50;99.90
78289;DHT22;67539;48.752;12.922;2023-12-20T04:34:29;2.50;99.90
78289;DHT22;67539;48.752;12.922;2023-12-20T04:36:58;2.60;99.90
78289;DHT22;67539;48.752;12.922;2023-12-20T04:39:27;2.50;99.90
78289;DHT22;67539;48.752;12.922;2023-12-20T04:41:55;2.50;99.90
78289;DHT22;67539;48.752;12.922;2023-12-20T04:44:24;2.50;99.90
78289;DHT22;67539;48.752;12.922;2023-12-20T04:46:53;2.50;99.90
78289;DHT22;67539;48.752;12.922;2023-12-20T04:49:23;2.50;99.90
78289;DHT22;67539;48.752;12.922;2023-12-20T04:51:51;2.50;99.90
78289;DHT22;67539;48.752;12.922;2023-12-20T04:54:20;2.50;99.90
78289;DHT22;67539;48.752;12.922;2023-12-20T04:56:49;2.50;99.90
78289;DHT22;67539;48.752;12.922;2023-12-20T04:59:18;2.60;99.90
78289;DHT22;67539;48.752;12.922;2023-12-20T05:01:46;2.50;99.90
78289;DHT22;67539;48.752;12.922;2023-12-20T05:04:14;2.60;99.90
78289;DHT22;67539;48.752;12.922;2023-12-20T05:06:42;2.60;99.90
78289;DHT22;67539;48.752;12.922;2023-12-20T05:09:10;2.60;99.90
78289;DHT22;67539;48.752;12.922;2023-12-20T05:11:39;2.60;99.90
78289;DHT22;67539;48.752;12.922;2023-12-20T05:14:08;2.60;99.90
78289;DHT22;67539;48.752;12.922;2023-12-20T05:16:36;2.60;99.90
78289;DHT22;67539;48.752;12.922;2023-12-20T05:19:05;2.60;99.90
78289;DHT22;67539;48.752;12.922;2023-12-20T05:21:34;2.60;99.90
78289;DHT22;67539;48.752;12.922;2023-12-20T05:24:03;2.60;99.90
78289;DHT22;67539;48.752;12.922;2023-12-20T05:26:31;2.60;99.90
78289;DHT22;67539;48.752;12.922;2023-12-20T05:28:59;2.60;99.90
78289;DHT22;67539;48.752;12.922;2023-12-20T05:31:29;2.60;99.90
78289;DHT22;67539;48.752;12.922;2023-12-20T05:33:57;2.60;99.90
78289;DHT22;67539;48.752;12.922;2023-12-20T05:36:26;2.60;99.90
78289;DHT22;67539;48.752;12.922;2023-12-20T05:38:55;2.60;99.90
78289;DHT22;67539;48.752;12.922;2023-12-20T05:41:23;2.60;99.90
78289;DHT22;67539;48.752;12.922;2023-12-20T05:43:51;2.50;99.90
78289;DHT22;67539;48.752;12.922;2023-12-20T05:46:19;2.50;99.90
78289;DHT22;67539;48.752;12.922;2023-12-20T05:48:49;2.50;99.90
78289;DHT22;67539;48.752;12.922;2023-12-20T05:51:18;2.50;99.90
78289;DHT22;67539;48.752;12.922;2023-12-20T05:53:46;2.60;99.90
78289;DHT22;67539;48.752;12.922;2023-12-20T05:56:16;2.60;99.90
78289;DHT22;67539;48.752;12.922;2023-12-20T05:58:44;2.60;99.90
78289;DHT22;67539;48.752;12.922;2023-12-20T06:01:14;2.60;99.90
78289;DHT22;67539;48.752;12.922;2023-12-20T06:03:44;2.60;99.90
78289;DHT22;67539;48.752;12.922;2023-12-20T06:06:14;2.70;99.90
78289;DHT22;67539;48.752;12.922;2023-12-20T06:08:43;2.70;99.90
78289;DHT22;67539;48.752;12.922;2023-12-20T06:11:11;2.70;99.90
78289;DHT22;67539;48.752;12.922;2023-12-20T06:13:40;2.70;99.90
78289;DHT22;67539;48.752;12.922;2023-12-20T06:16:08;2.70;99.90
78289;DHT22;67539;48.752;12.922;2023-12-20T06:18:37;2.80;99.90
78289;DHT22;67539;48.752;12.922;2023-12-20T06:21:05;2.80;99.90
78289;DHT22;67539;48.752;12.922;2023-12-20T06:23:35;2.80;99.90
78289;DHT22;67539;48.752;12.922;2023-12-20T06:26:03;2.80;99.90
78289;DHT22;67539;48.752;12.922;2023-12-20T06:28:32;2.80;99.90
78289;DHT22;67539;48.752;12.922;2023-12-20T06:31:00;2.90;99.90
78289;DHT22;67539;48.752;12.922;2023-12-20T06:33:28;2.90;99.90
78289;DHT22;67539;48.752;12.922;2023-12-20T06:35:57;2.90;99.90
78289;DHT22;67539;48.752;12.922;2023-12-20T06:38:25;2.90;99.90
78289;DHT22;67539;48.752;12.922;2023-12-20T06:40:55;2.90;99.90
78289;DHT22;67539;48.752;12.922;2023-12-20T06:43:24;2.90;99.90
78289;DHT22;67539;48.752;12.922;2023-12-20T06:45:57;2.90;99.90
78289;DHT22;67539;48.752;12.922;2023-12-20T06:48:25;2.90;99.90
78289;DHT22;67539;48.752;12.922;2023-12-20T06:50:54;2.90;99.90
78289;DHT22;67539;48.752;12.922;2023-12-20T06:53:22;3.00;99.90
78289;DHT22;67539;48.752;12.922;2023-12-20T06:55:50;3.00;99.90
78289;DHT22;67539;48.752;12.922;2023-12-20T06:58:20;3.00;99.90
78289;DHT22;67539;48.752;12.922;2023-12-20T07:00:48;3.00;99.90
78289;DHT22;67539;48.752;12.922;2023-12-20T07:03:17;3.10;99.90
78289;DHT22;67539;48.752;12.922;2023-12-20T07:05:45;3.10;99.90
78289;DHT22;67539;48.752;12.922;2023-12-20T07:08:13;3.10;99.90
78289;DHT22;67539;48.752;12.922;2023-12-20T07:10:42;3.10;99.90
78289;DHT22;67539;48.752;12.922;2023-12-20T07:13:10;3.10;99.90
78289;DHT22;67539;48.752;12.922;2023-12-20T07:15:41;3.10;99.90
78289;DHT22;67539;48.752;12.922;2023-12-20T07:18:10;3.10;99.90
78289;DHT22;67539;48.752;12.922;2023-12-20T07:20:39;3.10;99.90
78289;DHT22;67539;48.752;12.922;2023-12-20T07:23:07;3.20;99.90
78289;DHT22;67539;48.752;12.922;2023-12-20T07:25:35;3.20;99.90
78289;DHT22;67539;48.752;12.922;2023-12-20T07:28:04;3.20;99.90
78289;DHT22;67539;48.752;12.922;2023-12-20T07:30:32;3.20;99.90
78289;DHT22;67539;48.752;12.922;2023-12-20T07:33:03;3.20;99.90
78289;DHT22;67539;48.752;12.922;2023-12-20T07:35:31;3.20;99.90
78289;DHT22;67539;48.752;12.922;2023-12-20T07:37:59;3.30;99.90
78289;DHT22;67539;48.752;12.922;2023-12-20T07:40:29;3.40;99.90
78289;DHT22;67539;48.752;12.922;2023-12-20T07:42:57;3.60;99.90
78289;DHT22;67539;48.752;12.922;2023-12-20T07:45:26;3.70;99.90
78289;DHT22;67539;48.752;12.922;2023-12-20T07:47:54;3.90;99.90
78289;DHT22;67539;48.752;12.922;2023-12-20T07:50:23;3.90;99.90
78289;DHT22;67539;48.752;12.922;2023-12-20T07:52:52;4.00;99.90
78289;DHT22;67539;48.752;12.922;2023-12-20T07:55:20;4.00;99.90
78289;DHT22;67539;48.752;12.922;2023-12-20T07:57:48;4.10;99.90
78289;DHT22;67539;48.752;12.922;2023-12-20T08:00:17;4.10;99.90
78289;DHT22;67539;48.752;12.922;2023-12-20T08:02:46;4.20;99.90
78289;DHT22;67539;48.752;12.922;2023-12-20T08:05:14;4.20;99.90
78289;DHT22;67539;48.752;12.922;2023-12-20T08:07:45;4.20;99.90
78289;DHT22;67539;48.752;12.922;2023-12-20T08:10:13;4.20;99.90
78289;DHT22;67539;48.752;12.922;2023-12-20T08:12:41;4.30;99.90
78289;DHT22;67539;48.752;12.922;2023-12-20T08:15:10;4.20;99.90
78289;DHT22;67539;48.752;12.922;2023-12-20T08:17:38;4.30;99.90
78289;DHT22;67539;48.752;12.922;2023-12-20T08:20:07;4.30;99.90
78289;DHT22;67539;48.752;12.922;2023-12-20T08:22:35;4.30;99.90
78289;DHT22;67539;48.752;12.922;2023-12-20T08:25:06;4.30;99.90
78289;DHT22;67539;48.752;12.922;2023-12-20T08:27:39;4.40;99.90
78289;DHT22;67539;48.752;12.922;2023-12-20T08:30:09;4.40;99.90
78289;DHT22;67539;48.752;12.922;2023-12-20T08:32:37;4.40;99.90
78289;DHT22;67539;48.752;12.922;2023-12-20T08:35:06;4.40;99.90
78289;DHT22;67539;48.752;12.922;2023-12-20T08:37:34;4.40;99.90
78289;DHT22;67539;48.752;12.922;2023-12-20T08:40:03;4.40;99.90
78289;DHT22;67539;48.752;12.922;2023-12-20T08:42:32;4.40;99.90
78289;DHT22;67539;48.752;12.922;2023-12-20T08:45:01;4.50;99.90
78289;DHT22;67539;48.752;12.922;2023-12-20T08:47:31;4.50;99.90
78289;DHT22;67539;48.752;12.922;2023-12-20T08:49:59;4.50;99.90
78289;DHT22;67539;48.752;12.922;2023-12-20T08:52:28;4.50;99.90
78289;DHT22;67539;48.752;12.922;2023-12-20T08:54:57;4.50;99.90
78289;DHT22;67539;48.752;12.922;2023-12-20T08:57:25;4.50;99.90
78289;DHT22;67539;48.752;12.922;2023-12-20T08:59:54;4.50;99.90
78289;DHT22;67539;48.752;12.922;2023-12-20T09:02:23;4.60;99.90
78289;DHT22;67539;48.752;12.922;2023-12-20T09:04:51;4.50;99.90
78289;DHT22;67539;48.752;12.922;2023-12-20T09:07:22;4.50;99.90
78289;DHT22;67539;48.752;12.922;2023-12-20T09:09:51;4.60;99.90
78289;DHT22;67539;48.752;12.922;2023-12-20T09:12:20;4.60;99.90
78289;DHT22;67539;48.752;12.922;2023-12-20T09:14:49;4.60;99.90
78289;DHT22;67539;48.752;12.922;2023-12-20T09:17:19;4.70;99.90
78289;DHT22;67539;48.752;12.922;2023-12-20T09:19:47;4.70;99.90
78289;DHT22;67539;48.752;12.922;2023-12-20T09:22:15;4.70;99.90
78289;DHT22;67539;48.752;12.922;2023-12-20T09:24:44;4.70;99.90
78289;DHT22;67539;48.752;12.922;2023-12-20T09:27:12;4.70;99.90
78289;DHT22;67539;48.752;12.922;2023-12-20T09:29:40;4.80;99.90
78289;DHT22;67539;48.752;12.922;2023-12-20T09:32:08;4.80;99.90
78289;DHT22;67539;48.752;12.922;2023-12-20T09:34:38;4.90;99.90
78289;DHT22;67539;48.752;12.922;2023-12-20T09:37:07;4.80;99.90
78289;DHT22;67539;48.752;12.922;2023-12-20T09:39:35;4.90;99.90
78289;DHT22;67539;48.752;12.922;2023-12-20T09:42:04;4.90;99.90
78289;DHT22;67539;48.752;12.922;2023-12-20T09:44:33;4.90;99.90
78289;DHT22;67539;48.752;12.922;2023-12-20T09:47:03;4.90;99.90
78289;DHT22;67539;48.752;12.922;2023-12-20T09:49:32;5.00;99.90
78289;DHT22;67539;48.752;12.922;2023-12-20T09:52:05;5.00;99.90
78289;DHT22;67539;48.752;12.922;2023-12-20T09:54:34;5.00;99.90
78289;DHT22;67539;48.752;12.922;2023-12-20T09:57:03;5.00;99.90
78289;DHT22;67539;48.752;12.922;2023-12-20T09:59:32;5.00;99.90
78289;DHT22;67539;48.752;12.922;2023-12-20T10:02:01;5.00;99.90
78289;DHT22;67539;48.752;12.922;2023-12-20T10:04:32;5.10;99.90
78289;DHT22;67539;48.752;12.922;2023-12-20T10:07:03;5.10;99.90
78289;DHT22;67539;48.752;12.922;2023-12-20T10:09:34;5.00;99.90
78289;DHT22;67539;48.752;12.922;2023-12-20T10:12:02;5.00;99.90
78289;DHT22;67539;48.752;12.922;2023-12-20T10:14:32;5.10;99.90
78289;DHT22;67539;48.752;12.922;2023-12-20T10:17:02;5.10;99.90
78289;DHT22;67539;48.752;12.922;2023-12-20T10:19:31;5.10;99.90
78289;DHT22;67539;48.752;12.922;2023-12-20T10:22:00;5.10;99.90
78289;DHT22;67539;48.752;12.922;2023-12-20T10:24:30;5.20;99.90
78289;DHT22;67539;48.752;12.922;2023-12-20T10:27:02;5.10;99.90
78289;DHT22;67539;48.752;12.922;2023-12-20T10:29:32;5.20;99.90
78289;DHT22;67539;48.752;12.922;2023-12-20T10:32:28;5.10;99.90
78289;DHT22;67539;48.752;12.922;2023-12-20T10:34:56;5.10;99.90
78289;DHT22;67539;48.752;12.922;2023-12-20T10:37:24;5.20;99.90
78289;DHT22;67539;48.752;12.922;2023-12-20T10:39:54;5.20;99.90
78289;DHT22;67539;48.752;12.922;2023-12-20T10:42:26;5.20;99.90
78289;DHT22;67539;48.752;12.922;2023-12-20T10:44:55;5.20;99.90
78289;DHT22;67539;48.752;12.922;2023-12-20T10:47:25;5.20;99.90
78289;DHT22;67539;48.752;12.922;2023-12-20T10:49:54;5.30;99.90
78289;DHT22;67539;48.752;12.922;2023-12-20T10:52:24;5.30;99.90
78289;DHT22;67539;48.752;12.922;2023-12-20T10:54:55;5.20;99.90
78289;DHT22;67539;48.752;12.922;2023-12-20T10:57:25;5.30;99.90
78289;DHT22;67539;48.752;12.922;2023-12-20T10:59:55;5.30;99.90
78289;DHT22;67539;48.752;12.922;2023-12-20T11:02:25;5.30;99.90
78289;DHT22;67539;48.752;12.922;2023-12-20T11:04:59;5.40;99.90
78289;DHT22;67539;48.752;12.922;2023-12-20T11:07:33;5.40;99.90
78289;DHT22;67539;48.752;12.922;2023-12-20T11:10:12;5.40;99.90
78289;DHT22;67539;48.752;12.922;2023-12-20T11:12:48;5.40;99.90
78289;DHT22;67539;48.752;12.922;2023-12-20T11:15:20;5.50;99.90
78289;DHT22;67539;48.752;12.922;2023-12-20T11:17:54;5.60;99.90
78289;DHT22;67539;48.752;12.922;2023-12-20T11:20:24;5.70;99.90
78289;DHT22;67539;48.752;12.922;2023-12-20T11:22:53;5.70;99.90
78289;DHT22;67539;48.752;12.922;2023-12-20T11:25:23;5.80;99.90
78289;DHT22;67539;48.752;12.922;2023-12-20T11:28:08;5.90;99.90
78289;DHT22;67539;48.752;12.922;2023-12-20T11:30:46;5.90;99.90
78289;DHT22;67539;48.752;12.922;2023-12-20T11:33:16;6.00;99.90
78289;DHT22;67539;48.752;12.922;2023-12-20T11:35:46;6.00;99.90
78289;DHT22;67539;48.752;12.922;2023-12-20T11:38:14;5.90;99.90
78289;DHT22;67539;48.752;12.922;2023-12-20T11:40:44;5.90;99.90
78289;DHT22;67539;48.752;12.922;2023-12-20T11:43:29;5.90;99.90
78289;DHT22;67539;48.752;12.922;2023-12-20T11:46:02;5.90;99.90
78289;DHT22;67539;48.752;12.922;2023-12-20T11:48:31;5.80;99.90
78289;DHT22;67539;48.752;12.922;2023-12-20T11:51:00;5.80;99.90
78289;DHT22;67539;48.752;12.922;2023-12-20T11:53:28;5.80;99.90
78289;DHT22;67539;48.752;12.922;2023-12-20T11:55:59;5.80;99.90
78289;DHT22;67539;48.752;12.922;2023-12-20T11:58:27;5.70;99.90
78289;DHT22;67539;48.752;12.922;2023-12-20T12:00:55;5.70;99.90
78289;DHT22;67539;48.752;12.922;2023-12-20T12:03:23;5.70;99.90
78289;DHT22;67539;48.752;12.922;2023-12-20T12:05:52;5.70;99.90
78289;DHT22;67539;48.752;12.922;2023-12-20T12:08:20;5.70;99.90
78289;DHT22;67539;48.752;12.922;2023-12-20T12:10:48;5.70;99.90
78289;DHT22;67539;48.752;12.922;2023-12-20T12:13:18;5.70;99.90
78289;DHT22;67539;48.752;12.922;2023-12-20T12:15:47;5.70;99.90
78289;DHT22;67539;48.752;12.922;2023-12-20T12:18:17;5.80;99.90
78289;DHT22;67539;48.752;12.922;2023-12-20T12:20:46;5.70;99.90
78289;DHT22;67539;48.752;12.922;2023-12-20T12:23:14;5.80;99.90
78289;DHT22;67539;48.752;12.922;2023-12-20T12:25:50;5.80;99.90
78289;DHT22;67539;48.752;12.922;2023-12-20T12:28:20;5.80;99.90
78289;DHT22;67539;48.752;12.922;2023-12-20T12:30:56;5.80;99.90
78289;DHT22;67539;48.752;12.922;2023-12-20T12:33:25;5.80;99.90
78289;DHT22;67539;48.752;12.922;2023-12-20T12:35:54;5.80;99.90
78289;DHT22;67539;48.752;12.922;2023-12-20T12:38:24;5.80;99.90
78289;DHT22;67539;48.752;12.922;2023-12-20T12:40:52;5.80;99.90
78289;DHT22;67539;48.752;12.922;2023-12-20T12:43:23;5.80;99.90
78289;DHT22;67539;48.752;12.922;2023-12-20T12:45:51;5.80;99.90
78289;DHT22;67539;48.752;12.922;2023-12-20T12:48:19;5.80;99.90
78289;DHT22;67539;48.752;12.922;2023-12-20T12:50:48;5.80;99.90
78289;DHT22;67539;48.752;12.922;2023-12-20T12:53:18;5.80;99.90
78289;DHT22;67539;48.752;12.922;2023-12-20T12:55:47;5.90;99.90
78289;DHT22;67539;48.752;12.922;2023-12-20T12:58:15;6.00;99.90
78289;DHT22;67539;48.752;12.922;2023-12-20T13:00:44;6.10;99.90
78289;DHT22;67539;48.752;12.922;2023-12-20T13:03:12;6.10;99.90
78289;DHT22;67539;48.752;12.922;2023-12-20T13:05:41;6.10;99.90
78289;DHT22;67539;48.752;12.922;2023-12-20T13:08:13;6.20;99.90
78289;DHT22;67539;48.752;12.922;2023-12-20T13:10:41;6.30;99.90
78289;DHT22;67539;48.752;12.922;2023-12-20T13:13:09;6.40;99.90
78289;DHT22;67539;48.752;12.922;2023-12-20T13:15:37;6.40;99.90
78289;DHT22;67539;48.752;12.922;2023-12-20T13:18:07;6.40;99.90
78289;DHT22;67539;48.752;12.922;2023-12-20T13:20:35;6.40;99.90
78289;DHT22;67539;48.752;12.922;2023-12-20T13:23:03;6.30;99.90
78289;DHT22;67539;48.752;12.922;2023-12-20T13:25:31;6.30;99.90
78289;DHT22;67539;48.752;12.922;2023-12-20T13:28:00;6.30;99.90
78289;DHT22;67539;48.752;12.922;2023-12-20T13:30:29;6.30;99.90
78289;DHT22;67539;48.752;12.922;2023-12-20T13:32:58;6.20;99.90
78289;DHT22;67539;48.752;12.922;2023-12-20T13:35:28;6.20;99.90
78289;DHT22;67539;48.752;12.922;2023-12-20T13:37:56;6.20;99.90
78289;DHT22;67539;48.752;12.922;2023-12-20T13:40:25;6.10;99.90
78289;DHT22;67539;48.752;12.922;2023-12-20T13:42:53;6.10;99.90
78289;DHT22;67539;48.752;12.922;2023-12-20T13:45:21;6.10;99.90
78289;DHT22;67539;48.752;12.922;2023-12-20T13:47:51;6.00;99.90
78289;DHT22;67539;48.752;12.922;2023-12-20T13:50:20;6.00;99.90
78289;DHT22;67539;48.752;12.922;2023-12-20T13:52:50;6.00;99.90
78289;DHT22;67539;48.752;12.922;2023-12-20T13:55:18;5.90;99.90
78289;DHT22;67539;48.752;12.922;2023-12-20T13:57:49;5.90;99.90
78289;DHT22;67539;48.752;12.922;2023-12-20T14:00:22;5.90;99.90
78289;DHT22;67539;48.752;12.922;2023-12-20T14:02:50;5.90;99.90
78289;DHT22;67539;48.752;12.922;2023-12-20T14:05:18;5.90;99.90
78289;DHT22;67539;48.752;12.922;2023-12-20T14:07:52;5.80;99.90
78289;DHT22;67539;48.752;12.922;2023-12-20T14:10:20;5.80;99.90
78289;DHT22;67539;48.752;12.922;2023-12-20T14:12:48;5.80;99.90
78289;DHT22;67539;48.752;12.922;2023-12-20T14:15:17;5.80;99.90
78289;DHT22;67539;48.752;12.922;2023-12-20T14:17:45;5.90;99.90
78289;DHT22;67539;48.752;12.922;2023-12-20T14:20:14;5.90;99.90
78289;DHT22;67539;48.752;12.922;2023-12-20T14:22:42;6.00;99.90
78289;DHT22;67539;48.752;12.922;2023-12-20T14:25:13;6.00;99.90
78289;DHT22;67539;48.752;12.922;2023-12-20T14:27:42;6.00;99.90
78289;DHT22;67539;48.752;12.922;2023-12-20T14:30:13;5.90;99.90
78289;DHT22;67539;48.752;12.922;2023-12-20T14:32:42;6.00;99.90
78289;DHT22;67539;48.752;12.922;2023-12-20T14:35:10;6.00;99.90
78289;DHT22;67539;48.752;12.922;2023-12-20T14:37:39;5.90;99.90
78289;DHT22;67539;48.752;12.922;2023-12-20T14:40:09;5.90;99.90
78289;DHT22;67539;48.752;12.922;2023-12-20T14:42:44;5.90;99.90
78289;DHT22;67539;48.752;12.922;2023-12-20T14:45:12;5.80;99.90
78289;DHT22;67539;48.752;12.922;2023-12-20T14:47:41;5.80;99.90
78289;DHT22;67539;48.752;12.922;2023-12-20T14:50:10;5.80;99.90
78289;DHT22;67539;48.752;12.922;2023-12-20T14:52:39;5.80;99.90
78289;DHT22;67539;48.752;12.922;2023-12-20T14:55:07;5.70;99.90
78289;DHT22;67539;48.752;12.922;2023-12-20T14:57:36;5.60;99.90
78289;DHT22;67539;48.752;12.922;2023-12-20T15:00:07;5.60;99.90
78289;DHT22;67539;48.752;12.922;2023-12-20T15:02:35;5.60;99.90
78289;DHT22;67539;48.752;12.922;2023-12-20T15:05:04;5.50;99.90
78289;DHT22;67539;48.752;12.922;2023-12-20T15:07:32;5.50;99.90
78289;DHT22;67539;48.752;12.922;2023-12-20T15:10:00;5.50;99.90
78289;DHT22;67539;48.752;12.922;2023-12-20T15:12:28;5.40;99.90
78289;DHT22;67539;48.752;12.922;2023-12-20T15:14:56;5.40;99.90
78289;DHT22;67539;48.752;12.922;2023-12-20T15:17:26;5.40;99.90
78289;DHT22;67539;48.752;12.922;2023-12-20T15:19:54;5.40;99.90
78289;DHT22;67539;48.752;12.922;2023-12-20T15:22:23;5.30;99.90
78289;DHT22;67539;48.752;12.922;2023-12-20T15:24:53;5.30;99.90
78289;DHT22;67539;48.752;12.922;2023-12-20T15:27:22;5.30;99.90
78289;DHT22;67539;48.752;12.922;2023-12-20T15:29:51;5.30;99.90
78289;DHT22;67539;48.752;12.922;2023-12-20T15:32:19;5.30;99.90
78289;DHT22;67539;48.752;12.922;2023-12-20T15:34:49;5.30;99.90
78289;DHT22;67539;48.752;12.922;2023-12-20T15:37:19;5.20;99.90
78289;DHT22;67539;48.752;12.922;2023-12-20T15:39:47;5.30;99.90
78289;DHT22;67539;48.752;12.922;2023-12-20T15:42:16;5.20;99.90